Time;durP1;ratioP1;P1;durP2;ratioP2;P2;SDS_P1;SDS_P2;PMS_P1;PMS_P2;Temp;Humidity;BMP_temperature;BMP_pressure;BME280_temperature;BME280_humidity;BME280_pressure;Samples;Min_cycle;Max_cycle;Signal;HPM_P1;HPM_P2
2021/12/15 00:02:19;;;;;;;152.00;146.10;;;9.40;99.90;;;;;;5136024;27;20459;-83
2021/12/15 00:04:46;;;;;;;154.50;148.57;;;9.30;99.90;;;;;;5126288;27;20461;-82
2021/12/15 00:07:12;;;;;;;134.63;129.23;;;9.30;99.90;;;;;;5116374;28;20543;-83
2021/12/15 00:09:41;;;;;;;126.17;120.97;;;9.30;99.90;;;;;;5117672;28;20476;-83
2021/12/15 00:12:08;;;;;;;124.23;119.43;;;9.40;99.90;;;;;;5116890;28;20956;-83
2021/12/15 00:14:35;;;;;;;129.30;123.90;;;9.40;99.90;;;;;;5132607;27;20447;-83
2021/12/15 00:17:04;;;;;;;116.80;112.00;;;9.40;99.90;;;;;;5135127;27;20453;-84
2021/12/15 00:19:31;;;;;;;118.40;113.80;;;9.40;99.90;;;;;;5133139;27;20551;-83
2021/12/15 00:21:58;;;;;;;111.17;106.30;;;9.50;99.90;;;;;;5137303;28;20474;-83
2021/12/15 00:24:26;;;;;;;107.37;102.87;;;9.50;99.90;;;;;;5137198;28;21009;-83
2021/12/15 00:26:55;;;;;;;102.87;98.70;;;9.50;99.90;;;;;;5138035;27;20456;-83
2021/12/15 00:29:23;;;;;;;103.10;98.87;;;9.50;99.90;;;;;;5124106;28;20465;-83
2021/12/15 00:31:50;;;;;;;89.57;85.77;;;9.50;99.90;;;;;;5115962;28;20460;-83
2021/12/15 00:34:19;;;;;;;88.50;84.50;;;9.50;99.90;;;;;;5131258;27;20462;-85
2021/12/15 00:36:47;;;;;;;92.00;88.10;;;9.50;99.90;;;;;;5140034;27;20448;-83
2021/12/15 00:39:17;;;;;;;92.30;88.37;;;9.50;99.90;;;;;;5128627;27;20471;-83
2021/12/15 00:41:44;;;;;;;97.27;93.23;;;9.50;99.90;;;;;;5120737;28;20455;-83
2021/12/15 00:44:12;;;;;;;80.53;77.03;;;9.60;99.90;;;;;;5128759;27;20443;-83
2021/12/15 00:46:40;;;;;;;92.40;88.70;;;9.50;99.90;;;;;;5140011;27;20470;-83
2021/12/15 00:49:08;;;;;;;90.67;86.80;;;9.50;99.90;;;;;;5130747;27;20987;-83
2021/12/15 00:51:36;;;;;;;83.40;79.80;;;9.50;99.90;;;;;;5120485;28;20444;-83
2021/12/15 00:54:03;;;;;;;91.03;87.03;;;9.50;99.90;;;;;;5127462;27;20455;-83
2021/12/15 00:56:30;;;;;;;86.07;82.17;;;9.70;99.90;;;;;;5141795;27;20447;-83
2021/12/15 00:58:56;;;;;;;86.63;82.63;;;9.60;99.90;;;;;;5140013;27;20868;-84
2021/12/15 01:01:26;;;;;;;92.37;88.30;;;9.50;99.90;;;;;;5141374;27;20825;-84
2021/12/15 01:03:53;;;;;;;98.77;94.40;;;9.60;99.90;;;;;;5133890;27;20452;-84
2021/12/15 01:06:21;;;;;;;109.67;104.97;;;9.60;99.90;;;;;;5118808;28;20494;-84
2021/12/15 01:08:54;;;;;;;125.97;120.57;;;9.60;99.90;;;;;;5120304;27;20477;-84
2021/12/15 01:11:30;;;;;;;149.97;144.07;;;9.50;99.90;;;;;;5119501;28;20441;-84
2021/12/15 01:19:51;;;;;;;187.33;180.13;;;9.50;99.90;;;;;;5142014;27;20458;-84
2021/12/15 01:22:24;;;;;;;195.67;188.30;;;9.50;99.90;;;;;;5140667;27;21276;-83
2021/12/15 01:24:52;;;;;;;196.97;189.47;;;9.50;99.90;;;;;;5123928;27;20473;-83
2021/12/15 01:27:19;;;;;;;195.03;187.73;;;9.40;99.90;;;;;;5119568;27;20957;-84
2021/12/15 01:29:46;;;;;;;215.70;207.87;;;9.40;99.90;;;;;;5119778;28;20453;-84
2021/12/15 01:32:15;;;;;;;230.33;221.73;;;9.40;99.90;;;;;;5128366;27;20448;-84
2021/12/15 01:34:41;;;;;;;217.80;209.97;;;9.30;99.90;;;;;;5140456;27;20452;-84
2021/12/15 01:37:08;;;;;;;246.33;237.20;;;9.30;99.90;;;;;;5140815;27;20448;-83
2021/12/15 01:39:35;;;;;;;274.47;264.40;;;9.20;99.90;;;;;;5139702;27;20464;-84
2021/12/15 01:42:02;;;;;;;290.23;279.13;;;9.20;99.90;;;;;;5139675;27;20447;-83
2021/12/15 01:47:15;;;;;;;318.00;306.00;;;9.30;99.90;;;;;;5132095;27;20458;-84
2021/12/15 01:49:45;;;;;;;337.17;324.20;;;9.20;99.90;;;;;;5119442;28;20476;-84
2021/12/15 01:52:16;;;;;;;357.47;343.23;;;9.10;99.90;;;;;;5126019;27;20440;-85
2021/12/15 01:54:46;;;;;;;379.30;363.73;;;9.20;99.90;;;;;;5140110;27;20455;-83
2021/12/15 01:57:13;;;;;;;377.53;362.27;;;9.10;99.90;;;;;;5133806;27;20444;-84
2021/12/15 01:59:44;;;;;;;377.87;361.87;;;9.20;99.90;;;;;;5118934;28;20468;-84
2021/12/15 02:02:11;;;;;;;381.37;365.77;;;9.20;99.90;;;;;;5123675;27;20444;-84
2021/12/15 02:04:39;;;;;;;375.00;359.50;;;9.20;99.90;;;;;;5138609;27;20460;-84
2021/12/15 02:07:12;;;;;;;380.83;365.53;;;9.10;99.90;;;;;;5135366;27;20472;-83
2021/12/15 02:10:01;;;;;;;367.27;352.67;;;9.20;99.90;;;;;;5119588;27;20471;-84
2021/12/15 02:12:35;;;;;;;363.17;348.67;;;9.00;99.90;;;;;;5118681;28;20445;-84
2021/12/15 02:15:04;;;;;;;377.20;361.87;;;9.00;99.90;;;;;;5118564;27;20459;-84
2021/12/15 02:17:33;;;;;;;384.43;369.10;;;8.90;99.90;;;;;;5118507;28;20436;-84
2021/12/15 02:20:01;;;;;;;386.47;370.57;;;8.90;99.90;;;;;;5126698;27;20551;-84
2021/12/15 02:22:30;;;;;;;398.17;381.77;;;8.90;99.90;;;;;;5138353;27;20440;-83
2021/12/15 02:24:57;;;;;;;393.80;377.57;;;8.90;99.90;;;;;;5138362;27;20470;-84
2021/12/15 02:27:31;;;;;;;407.73;390.27;;;8.90;99.90;;;;;;5138376;27;20480;-83
2021/12/15 02:30:05;;;;;;;421.53;403.60;;;9.00;99.90;;;;;;5129898;27;20983;-84
2021/12/15 02:32:43;;;;;;;436.07;416.57;;;8.90;99.90;;;;;;5118696;28;20433;-83
2021/12/15 02:37:56;;;;;;;437.33;417.60;;;9.10;99.90;;;;;;5137414;27;20450;-84
2021/12/15 02:40:23;;;;;;;432.80;413.40;;;9.10;99.90;;;;;;5127539;27;20446;-84
2021/12/15 02:42:51;;;;;;;434.93;415.67;;;9.20;99.90;;;;;;5117547;28;20444;-85
2021/12/15 02:45:24;;;;;;;429.03;410.13;;;9.20;99.90;;;;;;5117292;28;20472;-84
2021/12/15 02:47:51;;;;;;;428.90;409.70;;;9.20;99.90;;;;;;5116132;28;20480;-84
2021/12/15 02:50:21;;;;;;;436.40;416.87;;;9.10;99.90;;;;;;5124729;27;20444;-84
2021/12/15 02:52:48;;;;;;;443.03;421.77;;;9.10;99.90;;;;;;5136856;27;20447;-84
2021/12/15 02:55:17;;;;;;;450.20;428.40;;;9.10;99.90;;;;;;5136015;27;20505;-84
2021/12/15 02:57:44;;;;;;;461.43;437.50;;;9.10;99.90;;;;;;5138703;27;20475;-84
2021/12/15 03:00:22;;;;;;;487.80;461.27;;;9.00;99.90;;;;;;5137877;27;20443;-83
2021/12/15 03:03:19;;;;;;;493.40;464.83;;;8.90;99.90;;;;;;5139200;27;20887;-83
2021/12/15 03:05:51;;;;;;;511.77;479.77;;;8.90;99.90;;;;;;5139559;27;20467;-83
2021/12/15 03:08:22;;;;;;;526.70;492.33;;;9.00;99.90;;;;;;5141889;27;20471;-84
2021/12/15 03:16:22;;;;;;;614.00;570.53;;;8.70;99.90;;;;;;5141012;27;20497;-84
2021/12/15 03:18:49;;;;;;;655.07;607.87;;;8.80;99.90;;;;;;5140410;27;20467;-82
2021/12/15 03:21:18;;;;;;;678.60;629.90;;;8.70;99.90;;;;;;5136724;27;20837;-82
2021/12/15 03:23:52;;;;;;;687.63;638.20;;;8.70;99.90;;;;;;5137364;27;20550;-82
2021/12/15 03:26:24;;;;;;;708.87;657.47;;;8.70;99.90;;;;;;5118916;27;20476;-82
2021/12/15 03:34:39;;;;;;;781.43;725.27;;;8.70;99.90;;;;;;5118754;28;20823;-82
2021/12/15 03:37:23;;;;;;;821.03;763.17;;;8.60;99.90;;;;;;5119495;28;20528;-83
2021/12/15 03:39:52;;;;;;;856.60;797.03;;;8.60;99.90;;;;;;5118429;28;20925;-82
2021/12/15 03:42:24;;;;;;;887.80;824.70;;;8.60;99.90;;;;;;5119342;28;20448;-82
2021/12/15 03:44:52;;;;;;;878.30;814.40;;;8.60;99.90;;;;;;5117856;28;20478;-83
2021/12/15 03:47:23;;;;;;;904.53;836.63;;;8.60;99.90;;;;;;5132251;27;20447;-83
2021/12/15 03:49:51;;;;;;;916.40;845.60;;;8.60;99.90;;;;;;5135419;28;20433;-83
2021/12/15 03:52:18;;;;;;;920.03;846.40;;;8.50;99.90;;;;;;5124974;28;20440;-83
2021/12/15 03:57:39;;;;;;;919.27;841.40;;;8.50;99.90;;;;;;5108744;28;20510;-83
2021/12/15 04:00:09;;;;;;;920.60;842.57;;;8.50;99.90;;;;;;5137348;28;20450;-86
2021/12/15 04:02:36;;;;;;;924.37;843.73;;;8.50;99.90;;;;;;5126134;28;20448;-83
2021/12/15 04:05:04;;;;;;;916.47;835.17;;;8.50;99.90;;;;;;5122398;28;20456;-83
2021/12/15 04:07:31;;;;;;;923.90;840.63;;;8.60;99.90;;;;;;5126618;27;20445;-84
2021/12/15 04:09:58;;;;;;;920.80;837.80;;;8.50;99.90;;;;;;5130963;27;21021;-83
2021/12/15 04:12:25;;;;;;;926.10;842.00;;;8.60;99.90;;;;;;5134317;27;20435;-84
2021/12/15 04:15:17;;;;;;;924.30;840.20;;;8.50;99.90;;;;;;5139848;27;20444;-82
2021/12/15 04:17:43;;;;;;;919.60;834.73;;;8.60;99.90;;;;;;5141302;27;20532;-84
2021/12/15 04:20:13;;;;;;;916.63;832.70;;;8.50;99.90;;;;;;5145562;27;20450;-83
2021/12/15 04:22:41;;;;;;;905.50;822.23;;;8.60;99.90;;;;;;5144769;27;20455;-83
2021/12/15 04:25:12;;;;;;;884.40;802.47;;;8.60;99.90;;;;;;5140937;27;21059;-84
2021/12/15 04:27:39;;;;;;;882.97;802.03;;;8.50;99.90;;;;;;5141539;27;20459;-83
2021/12/15 04:30:09;;;;;;;895.60;813.37;;;8.60;99.90;;;;;;5133513;27;20482;-83
2021/12/15 04:32:40;;;;;;;883.00;800.77;;;8.60;99.90;;;;;;5123434;27;20448;-83
2021/12/15 04:35:08;;;;;;;886.90;804.40;;;8.60;99.90;;;;;;5124247;27;20466;-83
2021/12/15 04:37:35;;;;;;;883.23;801.97;;;8.60;99.90;;;;;;5133017;27;20455;-83
2021/12/15 04:40:04;;;;;;;876.73;794.63;;;8.60;99.90;;;;;;5142694;27;20484;-82
2021/12/15 04:42:31;;;;;;;879.90;796.90;;;8.50;99.90;;;;;;5141145;27;20447;-83
2021/12/15 04:44:58;;;;;;;876.50;794.47;;;8.60;99.90;;;;;;5128582;27;20456;-83
2021/12/15 04:47:26;;;;;;;881.30;799.03;;;8.60;99.90;;;;;;5132701;27;20478;-81
2021/12/15 04:49:56;;;;;;;879.70;797.50;;;8.60;99.90;;;;;;5126085;27;20449;-83
2021/12/15 04:52:28;;;;;;;877.10;794.50;;;8.60;99.90;;;;;;5133982;27;20935;-84
2021/12/15 04:54:55;;;;;;;889.07;803.07;;;8.60;99.90;;;;;;5138725;27;20874;-84
2021/12/15 04:57:23;;;;;;;892.63;805.40;;;8.50;99.90;;;;;;5119663;28;20444;-84
2021/12/15 04:59:51;;;;;;;891.17;805.07;;;8.60;99.90;;;;;;5120290;27;20459;-84
2021/12/15 05:02:19;;;;;;;891.80;804.50;;;8.60;99.90;;;;;;5134518;27;20440;-84
2021/12/15 05:04:48;;;;;;;893.23;807.17;;;8.60;99.90;;;;;;5134709;27;20451;-84
2021/12/15 05:07:16;;;;;;;871.83;788.73;;;8.50;99.90;;;;;;5127681;27;20484;-84
2021/12/15 05:09:44;;;;;;;850.23;768.67;;;8.60;99.90;;;;;;5122703;27;20468;-84
2021/12/15 05:12:11;;;;;;;844.83;765.20;;;8.60;99.90;;;;;;5122440;27;20445;-83
2021/12/15 05:14:38;;;;;;;861.43;782.13;;;8.60;99.90;;;;;;5134022;27;20447;-83
2021/12/15 05:17:06;;;;;;;842.63;763.13;;;8.60;99.90;;;;;;5121968;27;20451;-83
2021/12/15 05:19:32;;;;;;;846.67;765.97;;;8.60;99.90;;;;;;5135143;27;20463;-83
2021/12/15 05:22:00;;;;;;;846.80;765.07;;;8.50;99.90;;;;;;5128797;27;20448;-84
2021/12/15 05:24:31;;;;;;;850.67;767.97;;;8.50;99.90;;;;;;5134490;27;20450;-84
2021/12/15 05:27:01;;;;;;;854.27;771.47;;;8.40;99.90;;;;;;5119491;27;20535;-84
2021/12/15 05:29:27;;;;;;;855.87;773.00;;;8.40;99.90;;;;;;5124266;27;20468;-84
2021/12/15 05:31:54;;;;;;;837.90;756.20;;;8.50;99.90;;;;;;5139949;27;20456;-83
2021/12/15 05:34:21;;;;;;;841.70;759.50;;;8.40;99.90;;;;;;5124192;27;20502;-83
2021/12/15 05:36:50;;;;;;;835.57;754.13;;;8.40;99.90;;;;;;5133981;27;20468;-85
2021/12/15 05:39:18;;;;;;;833.83;752.63;;;8.50;99.90;;;;;;5118019;27;20480;-83
2021/12/15 05:41:45;;;;;;;847.50;763.93;;;8.50;99.90;;;;;;5116075;28;20501;-84
2021/12/15 05:44:12;;;;;;;859.33;775.83;;;8.40;99.90;;;;;;5119138;28;20568;-85
2021/12/15 05:46:39;;;;;;;856.00;773.00;;;8.40;99.90;;;;;;5121160;28;20476;-84
2021/12/15 05:49:39;;;;;;;853.67;770.10;;;8.40;99.90;;;;;;5117078;28;20555;-85
2021/12/15 05:52:06;;;;;;;841.97;759.37;;;8.40;99.90;;;;;;5111741;28;20449;-83
2021/12/15 05:54:35;;;;;;;847.27;764.47;;;8.50;99.90;;;;;;5117079;27;20441;-84
2021/12/15 05:57:02;;;;;;;860.83;777.57;;;8.50;99.90;;;;;;5117518;28;20452;-83
2021/12/15 05:59:29;;;;;;;866.20;781.73;;;8.50;99.90;;;;;;5116254;28;20487;-83
2021/12/15 06:01:56;;;;;;;876.20;792.83;;;8.50;99.90;;;;;;5118122;28;20441;-83
2021/12/15 06:04:23;;;;;;;855.80;772.60;;;8.50;99.90;;;;;;5118387;27;20924;-84
2021/12/15 06:06:50;;;;;;;846.53;764.63;;;8.70;99.90;;;;;;5117950;28;20476;-83
2021/12/15 06:09:17;;;;;;;856.60;773.37;;;8.50;99.90;;;;;;5117457;28;20856;-84
2021/12/15 06:11:51;;;;;;;846.77;763.80;;;8.50;99.90;;;;;;5117370;28;20445;-83
2021/12/15 06:14:23;;;;;;;851.57;769.80;;;8.60;99.90;;;;;;5119386;28;20441;-83
2021/12/15 06:16:50;;;;;;;877.50;794.37;;;8.50;99.90;;;;;;5120275;28;20482;-83
2021/12/15 06:19:17;;;;;;;864.20;781.30;;;8.60;99.90;;;;;;5119979;28;20461;-83
2021/12/15 06:21:45;;;;;;;855.83;773.93;;;8.60;99.90;;;;;;5118185;28;20444;-84
2021/12/15 06:24:29;;;;;;;850.43;769.20;;;8.60;99.90;;;;;;5123689;28;20449;-86
2021/12/15 06:27:01;;;;;;;831.83;751.87;;;8.50;99.90;;;;;;5126915;27;20467;-84
2021/12/15 06:29:29;;;;;;;836.67;757.60;;;8.50;99.90;;;;;;5134595;27;20982;-83
2021/12/15 06:31:56;;;;;;;832.03;752.47;;;8.50;99.90;;;;;;5140543;27;20472;-82
2021/12/15 06:34:23;;;;;;;823.83;746.13;;;8.50;99.90;;;;;;5140697;27;20959;-83
2021/12/15 06:36:50;;;;;;;834.17;756.17;;;8.50;99.90;;;;;;5123775;27;20459;-83
2021/12/15 06:39:16;;;;;;;838.03;760.10;;;8.50;99.90;;;;;;5122470;28;20473;-83
2021/12/15 06:41:43;;;;;;;838.43;759.97;;;8.50;99.90;;;;;;5121846;28;20494;-83
2021/12/15 06:44:13;;;;;;;818.17;740.47;;;8.50;99.90;;;;;;5121731;27;20455;-82
2021/12/15 06:47:03;;;;;;;806.70;728.87;;;8.40;99.90;;;;;;5129389;27;20887;-82
2021/12/15 07:00:31;;;;;;;818.07;739.50;;;8.50;99.90;;;;;;5136905;27;20415;-83
2021/12/15 07:03:00;;;;;;;812.47;733.30;;;8.50;99.90;;;;;;5130159;27;20449;-83
2021/12/15 07:05:28;;;;;;;819.63;740.10;;;8.50;99.90;;;;;;5119540;27;20452;-84
2021/12/15 07:07:55;;;;;;;824.93;744.73;;;8.50;99.90;;;;;;5125673;27;20476;-83
2021/12/15 07:10:25;;;;;;;833.43;752.87;;;8.50;99.90;;;;;;5118770;27;20810;-83
2021/12/15 07:12:54;;;;;;;838.73;758.73;;;8.50;99.90;;;;;;5124447;27;20440;-83
2021/12/15 07:15:22;;;;;;;840.33;760.60;;;8.50;99.90;;;;;;5132970;27;20473;-83
2021/12/15 07:17:53;;;;;;;851.13;771.27;;;8.50;99.90;;;;;;5131225;27;20464;-83
2021/12/15 07:20:39;;;;;;;858.57;778.67;;;8.40;99.90;;;;;;5124257;27;20448;-85
2021/12/15 07:23:08;;;;;;;866.30;788.10;;;8.50;99.90;;;;;;5135583;27;21006;-83
2021/12/15 07:25:36;;;;;;;859.20;781.33;;;8.50;99.90;;;;;;5127440;27;20452;-84
2021/12/15 07:28:03;;;;;;;848.77;771.07;;;8.50;99.90;;;;;;5127193;27;20495;-84
2021/12/15 07:30:31;;;;;;;848.90;767.83;;;8.50;99.90;;;;;;5126271;27;20457;-83
2021/12/15 07:33:00;;;;;;;855.00;772.83;;;8.50;99.90;;;;;;5132468;27;20826;-85
2021/12/15 07:35:28;;;;;;;853.57;772.20;;;8.50;99.90;;;;;;5116063;28;20469;-84
2021/12/15 07:37:58;;;;;;;870.57;788.07;;;8.50;99.90;;;;;;5112884;28;20465;-84
2021/12/15 07:40:28;;;;;;;865.93;783.63;;;8.50;99.90;;;;;;5113485;28;20514;-84
2021/12/15 07:43:05;;;;;;;851.07;769.80;;;8.60;99.90;;;;;;5112964;28;20540;-84
2021/12/15 07:46:06;;;;;;;848.30;766.87;;;8.60;99.90;;;;;;5113091;28;20802;-84
2021/12/15 07:48:36;;;;;;;849.27;766.90;;;8.60;99.90;;;;;;5112885;28;20465;-84
2021/12/15 07:51:06;;;;;;;865.00;780.70;;;8.60;99.90;;;;;;5112952;28;20449;-85
2021/12/15 07:53:34;;;;;;;870.50;785.97;;;8.60;99.90;;;;;;5113167;28;20773;-84
2021/12/15 07:56:01;;;;;;;882.70;796.60;;;8.70;99.90;;;;;;5113454;28;20786;-84
2021/12/15 07:58:50;;;;;;;884.77;798.27;;;8.70;99.90;;;;;;5113781;28;20473;-85
2021/12/15 08:01:19;;;;;;;862.90;778.70;;;8.70;99.90;;;;;;5119669;27;20579;-84
2021/12/15 08:04:22;;;;;;;861.57;777.50;;;8.70;99.90;;;;;;5115359;28;20527;-83
2021/12/15 08:06:49;;;;;;;871.20;786.73;;;8.80;99.90;;;;;;5131039;28;20523;-84
2021/12/15 08:09:31;;;;;;;868.57;785.50;;;8.80;99.90;;;;;;5133332;28;20538;-84
2021/12/15 08:15:07;;;;;;;873.27;791.37;;;8.70;99.90;;;;;;5115606;27;20461;-84
2021/12/15 08:17:53;;;;;;;860.60;779.90;;;8.80;99.90;;;;;;5129007;27;20957;-83
2021/12/15 08:20:44;;;;;;;858.03;777.30;;;8.70;99.90;;;;;;5118982;28;20475;-83
2021/12/15 08:23:11;;;;;;;853.67;775.77;;;8.80;99.90;;;;;;5117976;27;21577;-83
2021/12/15 08:25:53;;;;;;;849.60;772.17;;;8.80;99.90;;;;;;5116884;28;20452;-82
2021/12/15 08:28:20;;;;;;;860.73;782.87;;;8.70;99.90;;;;;;5114354;28;20972;-83
2021/12/15 08:30:49;;;;;;;861.90;783.37;;;8.80;99.90;;;;;;5126452;27;20539;-83
2021/12/15 08:33:19;;;;;;;859.37;781.07;;;8.70;99.90;;;;;;5124811;27;20460;-83
2021/12/15 08:35:49;;;;;;;855.83;777.27;;;8.80;99.90;;;;;;5131506;27;20477;-83
2021/12/15 08:38:17;;;;;;;843.27;765.40;;;8.70;99.90;;;;;;5125099;28;20471;-83
2021/12/15 08:40:45;;;;;;;843.87;765.77;;;8.80;99.90;;;;;;5111953;28;21163;-83
2021/12/15 08:43:13;;;;;;;839.27;762.27;;;8.80;99.90;;;;;;5126620;28;20480;-82
2021/12/15 08:45:49;;;;;;;842.00;765.47;;;8.90;99.90;;;;;;5132566;28;20831;-83
2021/12/15 08:48:16;;;;;;;822.40;747.17;;;9.00;99.90;;;;;;5118410;27;20480;-83
2021/12/15 08:50:44;;;;;;;806.07;731.67;;;9.00;99.90;;;;;;5126087;27;20459;-83
2021/12/15 08:53:12;;;;;;;811.20;740.10;;;9.00;99.90;;;;;;5133808;27;20455;-84
2021/12/15 08:55:41;;;;;;;798.37;728.40;;;9.10;99.90;;;;;;5122346;27;20467;-83
2021/12/15 08:58:11;;;;;;;797.33;729.73;;;9.20;99.90;;;;;;5116116;28;20464;-81
2021/12/15 09:00:38;;;;;;;790.20;724.20;;;9.20;99.90;;;;;;5129192;27;20955;-83
2021/12/15 09:03:05;;;;;;;795.37;732.10;;;9.30;99.90;;;;;;5136392;27;20455;-83
2021/12/15 09:05:32;;;;;;;771.20;709.40;;;9.30;99.90;;;;;;5124692;27;20444;-84
2021/12/15 09:08:00;;;;;;;772.80;711.90;;;9.40;99.90;;;;;;5115657;28;20893;-83
2021/12/15 09:10:31;;;;;;;784.07;725.20;;;9.40;99.90;;;;;;5116175;27;20448;-83
2021/12/15 09:12:59;;;;;;;772.80;714.60;;;9.40;99.90;;;;;;5116139;28;20850;-83
2021/12/15 09:15:26;;;;;;;777.77;719.90;;;9.40;99.90;;;;;;5116966;28;20456;-83
2021/12/15 09:17:53;;;;;;;788.70;727.95;;;9.40;99.90;;;;;;5125893;27;20449;-82
2021/12/15 09:20:23;;;;;;;754.50;698.43;;;9.40;99.90;;;;;;5121315;27;20187;-83
2021/12/15 09:22:50;;;;;;;764.10;706.77;;;9.40;99.90;;;;;;5115822;28;20450;-83
2021/12/15 09:25:18;;;;;;;768.40;709.90;;;9.50;99.90;;;;;;5115403;28;20449;-83
2021/12/15 09:27:47;;;;;;;778.00;719.33;;;9.50;99.90;;;;;;5115894;28;20517;-83
2021/12/15 09:30:16;;;;;;;773.57;714.87;;;9.60;99.90;;;;;;5115700;28;20744;-83
2021/12/15 09:32:43;;;;;;;765.50;706.87;;;9.70;99.90;;;;;;5115331;28;20453;-83
2021/12/15 09:35:11;;;;;;;755.33;699.87;;;9.70;99.90;;;;;;5115590;28;20452;-84
2021/12/15 09:37:38;;;;;;;755.00;700.10;;;9.70;99.90;;;;;;5115523;28;20964;-83
2021/12/15 09:40:06;;;;;;;757.70;704.83;;;9.70;99.90;;;;;;5118059;28;20452;-83
2021/12/15 09:42:37;;;;;;;761.33;708.40;;;9.80;99.90;;;;;;5115416;28;20530;-84
2021/12/15 09:45:22;;;;;;;766.87;714.63;;;9.70;99.90;;;;;;5115357;28;20460;-83
2021/12/15 09:48:04;;;;;;;772.60;719.90;;;9.70;99.90;;;;;;5116833;28;20485;-83
2021/12/15 09:56:49;;;;;;;767.23;713.90;;;9.70;99.90;;;;;;5080707;28;20893;-83
2021/12/15 10:02:18;;;;;;;765.60;713.80;;;9.80;99.90;;;;;;5115354;28;20807;-83
2021/12/15 10:04:58;;;;;;;754.60;703.07;;;9.70;99.90;;;;;;5115366;28;20437;-83
2021/12/15 10:18:36;;;;;;;752.30;703.57;;;9.80;99.90;;;;;;5115814;28;20448;-83
2021/12/15 10:21:04;;;;;;;750.87;703.57;;;9.80;99.90;;;;;;5116351;28;20454;-84
2021/12/15 10:23:36;;;;;;;758.10;709.37;;;9.80;99.90;;;;;;5115581;28;20963;-83
2021/12/15 10:26:07;;;;;;;741.47;692.57;;;9.80;99.90;;;;;;5120279;28;20543;-82
2021/12/15 10:28:38;;;;;;;728.33;681.53;;;9.80;99.90;;;;;;5116097;28;20477;-83
2021/12/15 10:31:08;;;;;;;730.67;684.33;;;9.80;99.90;;;;;;5114901;28;20502;-82
2021/12/15 10:33:40;;;;;;;737.27;691.37;;;9.90;99.90;;;;;;5115255;28;20960;-82
2021/12/15 10:36:12;;;;;;;726.00;683.60;;;9.90;99.90;;;;;;5115197;28;20457;-83
2021/12/15 10:38:44;;;;;;;727.03;684.17;;;9.90;99.90;;;;;;5115431;28;20488;-83
2021/12/15 10:41:13;;;;;;;718.87;677.33;;;10.00;99.90;;;;;;5116204;28;20457;-83
2021/12/15 10:43:43;;;;;;;699.93;661.37;;;10.00;99.90;;;;;;5115969;28;20455;-83
2021/12/15 10:46:12;;;;;;;671.93;636.40;;;10.10;99.90;;;;;;5116149;28;21273;-82
2021/12/15 10:48:50;;;;;;;693.80;655.40;;;10.10;99.90;;;;;;5117134;28;20473;-82
2021/12/15 10:51:29;;;;;;;678.77;641.87;;;10.00;99.90;;;;;;5116178;28;20956;-82
2021/12/15 10:54:00;;;;;;;658.77;623.50;;;10.10;99.90;;;;;;5118245;28;20457;-82
2021/12/15 10:56:31;;;;;;;649.57;616.20;;;10.10;99.90;;;;;;5115840;28;20452;-83
2021/12/15 10:59:01;;;;;;;663.03;628.27;;;10.10;99.90;;;;;;5121036;28;20475;-82
2021/12/15 11:01:51;;;;;;;655.83;621.47;;;10.20;99.90;;;;;;5118862;28;20452;-82
2021/12/15 11:04:27;;;;;;;654.30;621.00;;;10.00;99.90;;;;;;5117719;28;20456;-82
2021/12/15 11:07:26;;;;;;;668.37;633.60;;;10.00;99.90;;;;;;5129971;27;20443;-83
2021/12/15 11:09:59;;;;;;;647.73;614.03;;;10.00;99.90;;;;;;5116033;28;20527;-82
2021/12/15 11:12:29;;;;;;;665.77;630.87;;;10.10;99.90;;;;;;5125101;27;20440;-82
2021/12/15 11:15:00;;;;;;;667.13;632.37;;;10.00;99.90;;;;;;5139562;27;20512;-83
2021/12/15 11:17:29;;;;;;;668.20;632.90;;;10.00;99.90;;;;;;5128992;27;20443;-83
2021/12/15 11:20:01;;;;;;;673.00;636.20;;;10.00;99.90;;;;;;5138744;27;20861;-84
2021/12/15 11:22:47;;;;;;;670.43;634.53;;;10.10;99.90;;;;;;5139126;27;20444;-82
2021/12/15 11:25:21;;;;;;;667.90;633.10;;;10.10;99.90;;;;;;5118954;28;20445;-82
2021/12/15 11:27:51;;;;;;;680.87;644.77;;;10.10;99.90;;;;;;5118930;28;21007;-81
2021/12/15 11:30:25;;;;;;;666.93;633.17;;;10.10;99.90;;;;;;5137671;27;20469;-82
2021/12/15 11:32:54;;;;;;;679.53;643.90;;;10.10;99.90;;;;;;5119160;28;20451;-82
2021/12/15 11:35:26;;;;;;;686.60;649.80;;;10.20;99.90;;;;;;5118352;28;20445;-80
2021/12/15 11:37:58;;;;;;;676.37;641.40;;;10.10;99.90;;;;;;5128618;27;20523;-82
2021/12/15 11:40:31;;;;;;;683.67;647.07;;;10.10;99.90;;;;;;5137453;27;20440;-81
2021/12/15 11:42:59;;;;;;;685.90;648.20;;;10.20;99.90;;;;;;5129959;27;20448;-82
2021/12/15 11:45:26;;;;;;;663.73;629.80;;;10.10;99.90;;;;;;5116931;28;20444;-82
2021/12/15 11:48:18;;;;;;;666.20;632.10;;;10.10;99.90;;;;;;5117505;27;20563;-81
2021/12/15 11:50:48;;;;;;;678.93;643.70;;;10.00;99.90;;;;;;5118047;28;20448;-82
2021/12/15 11:53:33;;;;;;;694.50;657.00;;;10.10;99.90;;;;;;5118253;28;20467;-82
2021/12/15 11:56:25;;;;;;;688.00;651.33;;;10.20;99.90;;;;;;5119204;28;20443;-82
2021/12/15 11:58:56;;;;;;;706.00;667.10;;;10.10;99.90;;;;;;5120708;28;20525;-82
2021/12/15 12:01:45;;;;;;;704.40;665.37;;;10.10;99.90;;;;;;5121931;28;20437;-82
2021/12/15 12:04:17;;;;;;;680.77;644.30;;;10.20;99.90;;;;;;5117602;28;20828;-82
2021/12/15 12:06:47;;;;;;;687.67;650.77;;;10.30;99.90;;;;;;5121573;28;20456;-82
2021/12/15 12:09:15;;;;;;;676.50;639.90;;;10.30;99.90;;;;;;5138641;28;20511;-81
2021/12/15 12:11:45;;;;;;;687.53;650.30;;;10.20;99.90;;;;;;5137275;28;21032;-83
2021/12/15 12:14:19;;;;;;;709.20;669.60;;;10.20;99.90;;;;;;5119205;28;20445;-82
2021/12/15 12:16:48;;;;;;;683.33;647.43;;;10.30;99.90;;;;;;5120553;28;20895;-82
2021/12/15 12:19:16;;;;;;;682.33;647.23;;;10.20;99.90;;;;;;5119330;28;20461;-82
2021/12/15 12:21:45;;;;;;;668.27;634.57;;;10.40;99.90;;;;;;5120459;28;20449;-81
2021/12/15 12:24:17;;;;;;;689.10;652.10;;;10.30;99.90;;;;;;5134548;27;20466;-83
2021/12/15 12:26:47;;;;;;;670.63;636.67;;;10.40;99.90;;;;;;5136740;27;20471;-82
2021/12/15 12:29:18;;;;;;;660.27;628.27;;;10.40;99.90;;;;;;5138339;27;20563;-83
2021/12/15 12:31:52;;;;;;;658.07;625.97;;;10.30;99.90;;;;;;5128125;27;20532;-83
2021/12/15 12:34:19;;;;;;;653.90;622.67;;;10.40;99.90;;;;;;5124039;27;20523;-83
2021/12/15 12:36:48;;;;;;;659.53;627.83;;;10.20;99.90;;;;;;5121106;28;20506;-83
2021/12/15 12:39:39;;;;;;;655.07;624.17;;;10.30;99.90;;;;;;5124667;27;20507;-83
2021/12/15 12:42:40;;;;;;;684.97;650.50;;;10.20;99.90;;;;;;5143387;27;20539;-83
2021/12/15 12:45:36;;;;;;;675.87;641.67;;;10.30;99.90;;;;;;5123052;27;20440;-83
2021/12/15 12:48:42;;;;;;;685.57;650.87;;;10.30;99.90;;;;;;5126613;27;20558;-83
2021/12/15 12:59:43;;;;;;;704.60;669.63;;;10.40;99.90;;;;;;5120707;28;20451;-82
2021/12/15 13:02:39;;;;;;;684.00;650.30;;;10.30;99.90;;;;;;5138245;27;20453;-82
2021/12/15 13:05:25;;;;;;;681.83;648.10;;;10.40;99.90;;;;;;5141580;27;20440;-84
2021/12/15 13:07:55;;;;;;;680.63;647.47;;;10.30;99.90;;;;;;5120073;28;20487;-82
2021/12/15 13:10:50;;;;;;;676.37;643.37;;;10.30;99.90;;;;;;5119947;28;20451;-82
2021/12/15 13:13:21;;;;;;;645.40;615.03;;;10.30;99.90;;;;;;5123690;27;20458;-82
2021/12/15 13:15:53;;;;;;;677.43;643.67;;;10.30;99.90;;;;;;5141770;27;20455;-82
2021/12/15 13:18:20;;;;;;;695.37;659.80;;;10.30;99.90;;;;;;5138716;27;20467;-83
2021/12/15 13:20:56;;;;;;;707.07;670.97;;;10.20;99.90;;;;;;5129146;27;20456;-82
2021/12/15 13:23:44;;;;;;;703.40;667.03;;;10.20;99.90;;;;;;5142668;27;20465;-82
2021/12/15 13:29:21;;;;;;;719.57;682.00;;;10.20;99.90;;;;;;5120854;28;20476;-82
2021/12/15 13:31:57;;;;;;;714.20;676.70;;;10.20;99.90;;;;;;5120979;27;20523;-82
2021/12/15 13:34:43;;;;;;;716.40;678.27;;;10.20;99.90;;;;;;5121181;28;20451;-82
2021/12/15 13:37:10;;;;;;;711.13;673.03;;;10.10;99.90;;;;;;5121631;28;20448;-83
2021/12/15 13:39:47;;;;;;;726.07;686.47;;;10.10;99.90;;;;;;5120202;28;20464;-83
2021/12/15 13:42:35;;;;;;;727.57;685.67;;;10.10;99.90;;;;;;5119684;28;20479;-83
2021/12/15 13:45:03;;;;;;;708.47;670.07;;;10.10;99.90;;;;;;5119294;28;20445;-83
2021/12/15 13:47:30;;;;;;;741.37;700.40;;;10.00;99.90;;;;;;5119941;28;20455;-82
2021/12/15 13:49:59;;;;;;;752.37;709.13;;;10.10;99.90;;;;;;5120691;28;20809;-83